Terminal Aerodrome Forecast
Issued by NWS Omaha/Valley, NE

Home | Current Version | Previous Version | Text Only | Print | Product List | Glossary Off
Versions: 1 2 3 4 5 6 7 8 9 10 11 12 13 14 15 16 17 18 19 20 21 22 23 24 25 26 27 28

326
FTUS43 KOAX 162323
TAFOFK
TAF
KOFK 162323Z 1700/1724 01007KT P6SM OVC250
     FM170700 01008KT P6SM BKN015
     FM170900 01008KT P6SM BKN008
     FM171200 01007KT P6SM BKN020
     FM171600 36008KT P6SM BKN040=

USA.gov is the U.S. government's official web portal to all federal, state and local government web resources and services.